Time;durP1;ratioP1;P1;durP2;ratioP2;P2;SDS_P1;SDS_P2;PMS_P1;PMS_P2;Temp;Humidity;BMP_temperature;BMP_pressure;BME280_temperature;BME280_humidity;BME280_pressure;Samples;Min_cycle;Max_cycle;Signal;HPM_P1;HPM_P2
2022/07/20 00:04:18;;;;;;;6.70;5.38;;;;;;;26.14;43.06;96136.63;10120877;28;99087;-64
2022/07/20 00:14:43;;;;;;;6.22;4.70;;;;;;;26.25;42.60;96141.06;10121340;28;97211;-62
2022/07/20 00:19:46;;;;;;;5.25;4.75;;;;;;;26.28;42.68;96145.91;10119473;28;96878;-62
2022/07/20 00:24:49;;;;;;;5.10;4.60;;;;;;;26.28;42.58;96148.59;10127508;28;97147;-62
2022/07/20 00:29:54;;;;;;;5.87;4.43;;;;;;;26.30;42.78;96151.81;10123907;28;97914;-62
2022/07/20 00:34:56;;;;;;;4.50;4.10;;;;;;;26.33;42.36;96155.88;10127629;28;97997;-62
2022/07/20 00:40:00;;;;;;;8.80;5.05;;;;;;;26.34;42.35;96160.97;10128675;28;97700;-63
2022/07/20 00:45:06;;;;;;;6.38;4.38;;;;;;;26.34;42.42;96155.59;10118513;28;97222;-64
2022/07/20 00:50:09;;;;;;;4.45;4.00;;;;;;;26.32;42.36;96160.41;10127722;28;97182;-63
2022/07/20 00:55:12;;;;;;;5.97;4.35;;;;;;;26.26;42.79;96160.59;10126877;28;96997;-62
2022/07/20 01:00:17;;;;;;;5.50;4.40;;;;;;;26.18;42.48;96159.16;10125316;28;96882;-62
2022/07/20 01:05:20;;;;;;;6.95;4.70;;;;;;;26.07;43.04;96152.03;10125577;28;97570;-62
2022/07/20 01:10:22;;;;;;;7.63;4.68;;;;;;;25.95;43.79;96155.63;10122192;28;97795;-62
2022/07/20 01:15:27;;;;;;;4.70;4.22;;;;;;;25.91;42.95;96149.19;10122329;28;98877;-62
2022/07/20 01:20:31;;;;;;;5.45;4.15;;;;;;;25.95;43.25;96155.63;10123912;28;96845;-61
2022/07/20 01:25:37;;;;;;;4.22;3.85;;;;;;;26.00;42.79;96154.91;10121279;28;96892;-62
2022/07/20 01:30:40;;;;;;;5.47;4.53;;;;;;;25.88;43.56;96168.41;10124583;28;98631;-62
2022/07/20 01:35:43;;;;;;;6.05;4.72;;;;;;;25.70;44.50;96171.34;10121806;28;97831;-61
2022/07/20 01:40:48;;;;;;;7.03;5.07;;;;;;;25.50;45.10;96172.63;10126161;28;96822;-61
2022/07/20 01:45:51;;;;;;;6.00;5.40;;;;;;;25.16;46.86;96185.16;10119106;28;97249;-62
2022/07/20 01:50:54;;;;;;;6.60;5.37;;;;;;;24.93;47.75;96186.13;10119910;28;101192;-62
2022/07/20 01:55:59;;;;;;;5.63;5.13;;;;;;;24.93;47.53;96191.47;10118079;28;98818;-62
2022/07/20 02:01:01;;;;;;;7.35;5.32;;;;;;;24.97;47.21;96181.91;10109639;28;96955;-62
2022/07/20 02:06:05;;;;;;;6.50;5.22;;;;;;;25.05;47.33;96189.53;10122951;28;96902;-61
2022/07/20 02:11:09;;;;;;;5.85;4.90;;;;;;;25.06;46.64;96180.44;10118221;28;96865;-61
2022/07/20 02:16:19;;;;;;;6.45;4.90;;;;;;;25.11;46.48;96188.56;10119816;28;96839;-62
2022/07/20 02:21:23;;;;;;;6.43;5.03;;;;;;;24.96;47.02;96185.66;10125276;28;97848;-62
2022/07/20 02:26:27;;;;;;;;;;;;;;;24.85;46.86;96185.47;10119482;28;97896;-61
2022/07/20 02:31:30;;;;;;;5.75;5.13;;;;;;;24.88;46.90;96179.63;10111877;28;96914;-61
2022/07/20 02:36:35;;;;;;;5.55;5.05;;;;;;;24.91;46.35;96182.88;10116272;28;98758;-62
2022/07/20 02:41:39;;;;;;;5.25;4.80;;;;;;;24.86;46.53;96176.38;10117696;28;97163;-62
2022/07/20 02:46:42;;;;;;;5.65;4.70;;;;;;;24.76;46.72;96184.16;10118856;28;98006;-64
2022/07/20 02:51:45;;;;;;;6.67;5.47;;;;;;;24.67;48.06;96188.28;10122223;28;98198;-64
2022/07/20 02:56:50;;;;;;;6.22;5.63;;;;;;;24.56;48.12;96197.13;10121664;28;97909;-63
2022/07/20 03:01:52;;;;;;;6.15;5.20;;;;;;;24.44;48.50;96192.66;10122856;28;98711;-61
2022/07/20 03:06:55;;;;;;;5.53;5.03;;;;;;;24.31;48.69;96187.56;10123958;28;97903;-62
2022/07/20 03:12:00;;;;;;;7.10;6.10;;;;;;;24.25;48.78;96188.53;10126172;28;97789;-62
2022/07/20 03:17:02;;;;;;;6.65;5.72;;;;;;;24.11;49.59;96191.44;10125911;28;97900;-61
2022/07/20 03:22:05;;;;;;;5.80;5.20;;;;;;;23.93;49.89;96184.38;10126190;28;99064;-63
2022/07/20 03:27:10;;;;;;;5.45;4.95;;;;;;;23.83;49.47;96192.16;10121708;28;97523;-61
2022/07/20 03:32:13;;;;;;;6.80;5.80;;;;;;;23.75;50.13;96201.31;10120718;28;99184;-61
2022/07/20 03:37:16;;;;;;;5.45;4.95;;;;;;;23.79;49.70;96193.66;10121709;28;97222;-61
2022/07/20 03:42:20;;;;;;;8.68;5.15;;;;;;;23.64;50.33;96204.78;10121440;28;97404;-62
2022/07/20 03:47:23;;;;;;;6.07;5.03;;;;;;;23.61;49.57;96213.25;10123327;28;98218;-61
2022/07/20 03:52:26;;;;;;;7.25;5.30;;;;;;;23.62;49.84;96224.72;10124626;28;98648;-61
2022/07/20 03:57:30;;;;;;;9.57;5.30;;;;;;;23.66;50.25;96242.72;10121645;28;97810;-61
2022/07/20 04:02:33;;;;;;;7.65;5.38;;;;;;;23.64;50.96;96252.78;10120533;28;98973;-61
2022/07/20 04:07:36;;;;;;;7.72;5.47;;;;;;;23.56;51.00;96258.47;10120742;28;97178;-61
2022/07/20 04:12:40;;;;;;;9.65;5.93;;;;;;;23.57;51.25;96265.44;10123648;28;97373;-61
2022/07/20 04:17:43;;;;;;;5.28;4.88;;;;;;;23.61;50.59;96273.78;10117608;28;98029;-61
2022/07/20 04:22:46;;;;;;;6.95;4.97;;;;;;;23.72;49.91;96272.97;10121546;28;98740;-62
2022/07/20 04:27:51;;;;;;;4.75;4.35;;;;;;;23.80;49.01;96279.84;10119399;28;97011;-62
2022/07/20 04:32:54;;;;;;;4.93;4.43;;;;;;;23.89;48.61;96278.44;10120795;28;98731;-63
2022/07/20 04:37:56;;;;;;;4.88;4.40;;;;;;;23.99;48.53;96280.53;10123797;28;96995;-62
2022/07/20 04:43:01;;;;;;;6.13;4.22;;;;;;;24.06;49.13;96295.41;10119770;28;98102;-62
2022/07/20 04:48:04;;;;;;;12.02;6.25;;;;;;;24.07;52.00;96313.06;10121115;28;98949;-62
2022/07/20 04:53:07;;;;;;;25.03;12.27;;;;;;;23.75;56.76;96310.66;10119553;28;97853;-61
2022/07/20 04:58:11;;;;;;;8.20;7.38;;;;;;;23.00;59.98;96321.75;10129978;28;97925;-62
2022/07/20 05:03:14;;;;;;;13.00;8.88;;;;;;;22.75;62.71;96328.00;10124265;28;98377;-62
2022/07/20 05:08:17;;;;;;;15.43;9.45;;;;;;;22.54;63.99;96331.09;10122196;28;96857;-61
2022/07/20 05:13:21;;;;;;;12.50;9.52;;;;;;;21.81;66.52;96322.69;10128352;28;97367;-61
2022/07/20 05:18:24;;;;;;;8.23;7.40;;;;;;;21.53;66.86;96335.56;10126925;28;98125;-60
2022/07/20 05:23:27;;;;;;;14.55;8.93;;;;;;;21.58;67.53;96327.75;10111402;28;97222;-62
2022/07/20 05:28:32;;;;;;;16.27;9.77;;;;;;;21.71;67.78;96319.75;10126696;28;99100;-61
2022/07/20 05:33:35;;;;;;;;;;;;;;;21.80;65.46;96320.28;10135818;28;96870;-61
2022/07/20 05:38:38;;;;;;;11.57;9.07;;;;;;;21.84;66.96;96321.47;10128313;28;96855;-61
2022/07/20 05:43:43;;;;;;;12.20;8.73;;;;;;;21.76;67.26;96327.88;10144211;28;98099;-63
2022/07/20 05:48:45;;;;;;;;;;;;;;;21.78;65.54;96339.09;10119408;28;96899;-63
2022/07/20 05:53:49;;;;;;;15.23;9.45;;;;;;;21.70;67.61;96339.38;10116394;28;99057;-63
2022/07/20 05:58:54;;;;;;;10.25;9.25;;;;;;;21.69;68.12;96337.72;10118437;28;98765;-64
2022/07/20 06:03:57;;;;;;;10.82;9.18;;;;;;;21.48;69.28;96346.84;10121315;28;98669;-64
2022/07/20 06:09:00;;;;;;;10.10;9.03;;;;;;;21.47;69.24;96343.38;10119388;28;98165;-64
2022/07/20 06:14:24;;;;;;;15.00;9.75;;;;;;;21.64;69.51;96334.91;10122327;28;96882;-63
2022/07/20 06:19:27;;;;;;;;;;;;;;;21.72;68.13;96331.97;10126053;28;98072;-64
2022/07/20 06:24:29;;;;;;;9.30;8.35;;;;;;;21.91;68.18;96334.72;10140434;28;97004;-63
2022/07/20 06:29:34;;;;;;;9.07;8.27;;;;;;;22.02;68.66;96326.00;10144137;28;96847;-64
2022/07/20 06:34:36;;;;;;;;;;;;;;;22.17;67.36;96329.16;10135288;28;96853;-65
2022/07/20 06:39:39;;;;;;;9.07;8.27;;;;;;;22.40;68.68;96341.03;10134278;28;96978;-63
2022/07/20 06:44:50;;;;;;;13.68;9.77;;;;;;;22.62;70.01;96344.91;10132558;28;97056;-64
2022/07/20 06:49:53;;;;;;;13.55;12.25;;;;;;;22.71;71.22;96342.78;10148574;28;96760;-63
2022/07/20 06:54:56;;;;;;;12.80;11.38;;;;;;;22.84;70.39;96339.16;10147356;28;97427;-64
2022/07/20 07:00:00;;;;;;;14.25;10.93;;;;;;;22.94;69.93;96342.13;10135328;28;97162;-64
2022/07/20 07:05:04;;;;;;;10.13;9.00;;;;;;;23.11;69.20;96339.63;10134463;28;96869;-64
2022/07/20 07:10:07;;;;;;;12.85;9.40;;;;;;;23.35;68.15;96351.25;10132870;28;97604;-64
2022/07/20 07:15:12;;;;;;;12.00;9.50;;;;;;;23.58;67.51;96341.69;10135650;28;96900;-63
2022/07/20 07:20:15;;;;;;;9.85;8.95;;;;;;;23.69;67.32;96350.75;10133961;28;98120;-64
2022/07/20 07:25:26;;;;;;;12.07;8.98;;;;;;;23.92;67.12;96342.03;10144226;28;97012;-64
2022/07/20 07:30:30;;;;;;;10.35;8.13;;;;;;;24.15;65.67;96329.78;10143408;28;96842;-64
2022/07/20 07:35:33;;;;;;;7.07;6.38;;;;;;;24.37;63.25;96338.81;10142409;28;97686;-64
2022/07/20 07:40:36;;;;;;;7.55;6.85;;;;;;;24.63;62.01;96332.19;10142397;28;98261;-66
2022/07/20 07:45:41;;;;;;;6.50;5.90;;;;;;;24.78;59.88;96329.03;10137148;28;97888;-64
2022/07/20 07:50:44;;;;;;;6.63;6.03;;;;;;;25.09;59.23;96332.31;10133102;28;98574;-64
2022/07/20 07:55:47;;;;;;;7.75;5.60;;;;;;;25.35;57.29;96330.16;10135278;28;96952;-64
2022/07/20 08:00:52;;;;;;;8.38;5.97;;;;;;;25.59;56.69;96323.66;10143740;28;96774;-64
2022/07/20 08:05:55;;;;;;;7.13;6.53;;;;;;;25.77;56.17;96329.84;10136509;28;96785;-65
2022/07/20 08:10:58;;;;;;;6.47;5.95;;;;;;;25.89;55.46;96317.19;10132369;28;96803;-65
2022/07/20 08:16:03;;;;;;;6.80;6.15;;;;;;;26.13;54.86;96323.19;10133230;28;98467;-64
2022/07/20 08:21:06;;;;;;;6.75;6.15;;;;;;;26.40;54.43;96321.72;10132018;28;96923;-64
2022/07/20 08:26:09;;;;;;;6.13;5.63;;;;;;;26.62;54.26;96314.53;10132372;28;97146;-64
2022/07/20 08:31:14;;;;;;;;;;;;;;;26.75;54.26;96324.88;10131798;28;96727;-64
2022/07/20 08:36:16;;;;;;;;;;;;;;;26.98;53.52;96327.63;10127870;28;96985;-64
2022/07/20 08:41:19;;;;;;;6.57;5.80;;;;;;;27.24;51.94;96320.66;10131660;28;97191;-64
2022/07/20 08:46:24;;;;;;;5.63;5.20;;;;;;;27.49;50.80;96323.63;10131573;28;97094;-64
2022/07/20 08:51:28;;;;;;;7.22;6.00;;;;;;;27.73;49.88;96327.88;10130865;28;96873;-65
2022/07/20 08:56:31;;;;;;;5.95;5.35;;;;;;;28.00;49.10;96317.09;10131169;28;96837;-64
2022/07/20 09:01:35;;;;;;;7.33;5.03;;;;;;;28.13;47.88;96321.22;10125956;28;96755;-64
2022/07/20 09:06:46;;;;;;;5.53;5.03;;;;;;;28.19;47.27;96304.09;10124797;28;96788;-64
2022/07/20 09:11:50;;;;;;;5.70;4.80;;;;;;;28.27;45.92;96310.84;10130896;28;97088;-65
2022/07/20 09:16:54;;;;;;;5.20;4.80;;;;;;;28.39;46.15;96306.94;10130071;28;96997;-64
2022/07/20 09:22:00;;;;;;;6.47;4.85;;;;;;;28.61;45.21;96312.13;10128856;28;96783;-65
2022/07/20 09:27:04;;;;;;;6.28;5.68;;;;;;;28.70;48.49;96300.91;10128434;28;96993;-64
2022/07/20 09:32:10;;;;;;;5.32;4.55;;;;;;;28.82;45.28;96296.13;10127561;28;96910;-62
2022/07/20 09:37:17;;;;;;;6.20;5.60;;;;;;;28.97;44.38;96290.81;10130529;28;96817;-62
2022/07/20 09:42:36;;;;;;;6.63;5.55;;;;;;;29.09;45.29;96295.16;10123067;28;97040;-62
2022/07/20 09:47:40;;;;;;;6.28;5.60;;;;;;;29.13;44.41;96285.50;10129446;28;97091;-61
2022/07/20 09:52:43;;;;;;;6.22;5.63;;;;;;;29.22;44.02;96289.28;10130025;28;96893;-62
2022/07/20 09:57:46;;;;;;;7.97;6.03;;;;;;;29.36;45.07;96282.31;10129095;28;97340;-62
2022/07/20 10:02:54;;;;;;;7.80;5.55;;;;;;;29.40;44.75;96274.53;10129204;28;96997;-62
2022/07/20 10:08:00;;;;;;;8.77;5.72;;;;;;;29.60;43.31;96273.75;10121939;28;96852;-62
2022/07/20 10:13:04;;;;;;;9.13;5.90;;;;;;;29.71;42.83;96269.19;10127836;28;97951;-62
2022/07/20 10:18:10;;;;;;;6.28;5.68;;;;;;;29.92;42.26;96264.59;10120277;28;98019;-62
2022/07/20 10:23:31;;;;;;;7.18;6.30;;;;;;;30.21;42.41;96255.97;10122727;28;96919;-62
2022/07/20 10:28:36;;;;;;;5.70;5.13;;;;;;;30.41;40.99;96247.03;10127429;28;98959;-62
2022/07/20 10:33:41;;;;;;;9.75;5.70;;;;;;;30.56;41.24;96236.19;10124671;28;97326;-62
2022/07/20 10:38:43;;;;;;;5.97;5.47;;;;;;;30.57;43.32;96237.00;10127011;28;98657;-62
2022/07/20 10:44:19;;;;;;;6.00;5.40;;;;;;;30.71;39.83;96226.44;10119805;28;96932;-62
2022/07/20 10:49:56;;;;;;;7.57;5.18;;;;;;;30.95;38.85;96215.81;10122448;28;97645;-62
2022/07/20 10:55:00;;;;;;;5.38;4.93;;;;;;;31.14;39.22;96214.06;10108122;28;97927;-62
2022/07/20 11:00:09;;;;;;;7.82;4.82;;;;;;;31.19;38.21;96213.22;10115356;28;97688;-62
2022/07/20 11:05:22;;;;;;;8.15;5.00;;;;;;;31.22;36.60;96200.00;10118741;28;99360;-62
2022/07/20 11:10:30;;;;;;;6.65;4.90;;;;;;;31.23;36.80;96193.50;10132585;28;97245;-62
2022/07/20 11:15:41;;;;;;;5.80;4.70;;;;;;;31.35;36.32;96197.78;10132805;28;96748;-63
2022/07/20 11:20:48;;;;;;;5.32;4.80;;;;;;;31.51;36.46;96190.34;10118647;28;97299;-62
2022/07/20 11:25:55;;;;;;;5.68;5.10;;;;;;;31.62;35.92;96193.75;10129798;28;98574;-62
2022/07/20 11:30:59;;;;;;;4.97;4.47;;;;;;;31.50;35.68;96180.63;10131433;28;99476;-62
2022/07/20 11:36:05;;;;;;;5.35;4.45;;;;;;;31.53;34.64;96172.75;10136087;28;97338;-62
2022/07/20 11:41:11;;;;;;;4.57;4.18;;;;;;;31.62;36.87;96150.56;10135533;28;97327;-62
2022/07/20 11:46:24;;;;;;;4.63;4.22;;;;;;;31.77;34.47;96155.81;10135022;28;96785;-62
2022/07/20 11:51:27;;;;;;;6.32;4.25;;;;;;;31.87;35.28;96155.72;10135412;28;98973;-62
2022/07/20 11:56:31;;;;;;;;;;;;;;;32.00;35.91;96153.44;10134166;28;96818;-62
2022/07/20 12:01:36;;;;;;;4.55;4.05;;;;;;;32.17;33.66;96138.38;10134462;28;96783;-63
2022/07/20 12:06:41;;;;;;;4.43;4.03;;;;;;;32.12;33.00;96126.81;10128291;28;96921;-62
2022/07/20 12:11:57;;;;;;;5.35;4.22;;;;;;;32.07;31.96;96127.69;10132193;28;96915;-63
2022/07/20 12:17:11;;;;;;;5.20;4.20;;;;;;;32.25;32.26;96118.03;10132388;28;96802;-63
2022/07/20 12:22:18;;;;;;;5.07;4.18;;;;;;;32.38;32.51;96102.19;10131569;28;96771;-64
2022/07/20 12:27:24;;;;;;;6.70;4.20;;;;;;;32.59;30.99;96094.63;10132229;28;97793;-62
2022/07/20 12:32:32;;;;;;;5.40;3.85;;;;;;;32.65;31.22;96083.44;10132803;28;96877;-64
2022/07/20 12:37:53;;;;;;;5.28;3.90;;;;;;;32.90;30.75;96070.63;10131852;28;96879;-62
2022/07/20 12:42:58;;;;;;;4.53;3.63;;;;;;;33.13;31.13;96060.00;10131378;28;96874;-63
2022/07/20 12:48:01;;;;;;;4.80;3.53;;;;;;;33.12;30.07;96053.78;10130254;28;96862;-62
2022/07/20 12:53:09;;;;;;;4.50;3.78;;;;;;;33.51;30.91;96043.63;10131090;28;97048;-62
2022/07/20 12:58:14;;;;;;;5.43;4.28;;;;;;;33.84;30.61;96020.75;10131113;28;96866;-62
2022/07/20 13:03:17;;;;;;;4.53;4.03;;;;;;;34.09;30.11;96037.63;10129588;28;97263;-62
2022/07/20 13:08:20;;;;;;;7.00;4.20;;;;;;;34.06;29.12;96040.94;10125271;28;98133;-62
2022/07/20 13:13:30;;;;;;;5.25;4.00;;;;;;;34.37;29.06;96035.66;10130863;28;96768;-62
2022/07/20 13:18:33;;;;;;;4.90;3.90;;;;;;;34.61;29.49;96029.16;10130788;28;96846;-62
2022/07/20 13:23:36;;;;;;;4.90;3.95;;;;;;;34.88;28.43;96041.81;10128909;28;96992;-63
2022/07/20 13:28:40;;;;;;;6.20;4.00;;;;;;;35.02;29.30;96039.03;10126058;28;96882;-62
2022/07/20 13:33:43;;;;;;;4.93;4.03;;;;;;;34.59;28.78;96026.75;10128326;28;96809;-62
2022/07/20 13:38:48;;;;;;;4.25;3.75;;;;;;;34.26;30.66;96030.78;10118265;28;96948;-62
2022/07/20 13:43:53;;;;;;;5.18;3.92;;;;;;;34.48;28.66;96028.09;10127248;28;97617;-62
2022/07/20 13:48:58;;;;;;;4.63;4.22;;;;;;;34.45;28.92;96020.56;10122587;28;96802;-63
2022/07/20 13:54:01;;;;;;;4.72;4.32;;;;;;;34.21;29.37;96018.94;10119960;28;97997;-62
2022/07/20 13:59:05;;;;;;;4.22;3.60;;;;;;;34.19;28.94;96021.16;10129637;28;96884;-62
2022/07/20 14:04:12;;;;;;;4.40;4.00;;;;;;;34.12;28.49;96015.28;10121455;28;97624;-63
2022/07/20 14:09:14;;;;;;;6.07;4.18;;;;;;;34.09;28.26;96005.09;10120485;28;97157;-62
2022/07/20 14:14:19;;;;;;;3.97;3.65;;;;;;;34.00;28.32;96007.72;10129699;28;97234;-63
2022/07/20 14:19:22;;;;;;;4.60;3.40;;;;;;;34.74;27.49;96008.53;10119901;28;98920;-62
2022/07/20 14:24:25;;;;;;;3.90;3.60;;;;;;;35.33;27.26;96003.78;10128846;28;96751;-62
2022/07/20 14:29:29;;;;;;;4.05;3.05;;;;;;;37.52;24.99;96017.53;10127754;28;97038;-63
2022/07/20 14:34:32;;;;;;;3.78;2.80;;;;;;;39.27;22.58;96003.44;10128499;28;98538;-62
2022/07/20 14:39:35;;;;;;;2.80;2.60;;;;;;;39.28;22.61;96006.97;10119028;28;97106;-63
2022/07/20 14:44:40;;;;;;;2.83;2.63;;;;;;;39.49;22.03;96004.13;10128852;28;96893;-63
2022/07/20 14:49:43;;;;;;;3.42;2.35;;;;;;;40.06;21.52;96003.28;10125223;28;97971;-63
2022/07/20 14:54:46;;;;;;;2.55;2.33;;;;;;;41.34;20.28;95993.50;10134164;28;97061;-63
2022/07/20 14:59:53;;;;;;;3.30;2.30;;;;;;;41.86;19.18;95999.13;10134929;28;96849;-63
2022/07/20 15:04:57;;;;;;;2.45;2.20;;;;;;;41.99;18.76;96000.56;10134809;28;97201;-63
2022/07/20 15:09:59;;;;;;;2.70;1.98;;;;;;;42.54;18.93;95997.84;10125762;28;96764;-63
2022/07/20 15:15:05;;;;;;;3.95;2.25;;;;;;;43.26;17.72;96021.25;10119876;28;98904;-63
2022/07/20 15:20:09;;;;;;;6.28;2.30;;;;;;;43.27;17.26;96003.59;10124325;28;97140;-63
2022/07/20 15:25:13;;;;;;;2.70;2.50;;;;;;;41.28;20.01;96023.13;10134181;28;96826;-64
2022/07/20 15:30:17;;;;;;;5.95;3.95;;;;;;;38.84;22.87;96032.75;10129942;28;98954;-63
2022/07/20 15:35:20;;;;;;;7.68;5.43;;;;;;;36.81;26.15;96040.59;10133257;28;96747;-62
2022/07/20 15:40:23;;;;;;;6.05;5.35;;;;;;;38.06;25.28;96041.50;10129382;28;98640;-63
2022/07/20 15:45:27;;;;;;;5.85;5.20;;;;;;;38.38;25.31;96042.75;10129199;28;97306;-62
2022/07/20 15:50:31;;;;;;;7.20;6.07;;;;;;;37.06;26.82;96058.03;10128940;28;96960;-62
2022/07/20 15:55:38;;;;;;;7.72;6.65;;;;;;;35.83;29.27;96056.28;10131494;28;97221;-63
2022/07/20 16:00:42;;;;;;;7.43;6.72;;;;;;;36.67;28.89;96057.06;10145789;28;97220;-62
2022/07/20 16:05:46;;;;;;;7.25;6.38;;;;;;;38.03;26.98;96053.06;10153338;28;96887;-63
2022/07/20 16:10:48;;;;;;;7.03;6.32;;;;;;;38.71;25.87;96057.59;10127927;28;96881;-62
2022/07/20 16:15:53;;;;;;;7.60;5.75;;;;;;;37.72;25.81;96063.16;10132820;28;96845;-62
2022/07/20 16:20:56;;;;;;;5.72;4.78;;;;;;;39.87;23.46;96071.38;10132217;28;96773;-62
2022/07/20 16:25:59;;;;;;;7.70;6.80;;;;;;;40.09;24.37;96068.22;10132383;28;96836;-63
2022/07/20 16:31:04;;;;;;;10.18;7.00;;;;;;;39.60;24.83;96068.19;10131609;28;96856;-63
2022/07/20 16:36:12;;;;;;;9.50;6.68;;;;;;;38.94;25.89;96058.84;10132164;28;96738;-62
2022/07/20 16:41:15;;;;;;;6.90;6.30;;;;;;;40.17;23.88;96070.03;10131346;28;97917;-63
2022/07/20 16:46:19;;;;;;;6.90;6.20;;;;;;;41.06;23.13;96075.78;10123871;28;97431;-63
2022/07/20 16:51:22;;;;;;;7.93;7.13;;;;;;;40.48;24.72;96059.63;10131438;28;96891;-63
2022/07/20 16:56:25;;;;;;;7.55;6.18;;;;;;;40.62;23.29;96061.97;10127242;28;98013;-63
2022/07/20 17:01:30;;;;;;;8.75;7.35;;;;;;;39.86;24.71;96072.53;10121663;28;97103;-65
2022/07/20 17:06:33;;;;;;;7.65;6.88;;;;;;;40.08;24.15;96063.09;10121474;28;97162;-63
2022/07/20 17:11:35;;;;;;;8.48;6.57;;;;;;;39.84;23.67;96078.34;10130593;28;96945;-63
2022/07/20 17:16:40;;;;;;;7.60;6.80;;;;;;;38.66;24.94;96097.63;10130973;28;96743;-63
2022/07/20 17:21:43;;;;;;;7.32;6.60;;;;;;;38.39;25.42;96098.13;10130367;28;96901;-63
2022/07/20 17:26:46;;;;;;;8.20;7.25;;;;;;;36.97;27.41;96093.44;10129791;28;96940;-63
2022/07/20 17:31:51;;;;;;;8.18;7.03;;;;;;;36.42;28.06;96119.31;10129479;28;98968;-64
2022/07/20 17:36:54;;;;;;;8.45;7.63;;;;;;;34.23;30.66;96124.38;10130597;28;98671;-63
2022/07/20 17:41:58;;;;;;;8.90;7.45;;;;;;;33.59;31.96;96132.31;10129998;28;97666;-63
2022/07/20 17:47:02;;;;;;;10.23;8.48;;;;;;;33.16;32.83;96136.00;10129241;28;97845;-63
2022/07/20 17:52:06;;;;;;;11.15;9.73;;;;;;;31.81;35.44;96156.84;10127637;28;97924;-62
2022/07/20 17:57:09;;;;;;;11.30;10.20;;;;;;;30.99;36.98;96144.81;10128464;28;96868;-62
2022/07/20 18:02:13;;;;;;;;;;;;;;;30.45;36.53;96157.25;10128243;28;96887;-63
2022/07/20 18:07:16;;;;;;;10.27;9.23;;;;;;;30.48;37.13;96166.69;10123451;28;96818;-62
2022/07/20 18:12:19;;;;;;;13.63;10.20;;;;;;;30.50;37.24;96179.88;10127839;28;97681;-62
2022/07/20 18:17:24;;;;;;;12.80;10.10;;;;;;;30.67;37.05;96207.31;10138478;28;97633;-62
2022/07/20 18:22:27;;;;;;;14.27;11.30;;;;;;;29.76;39.05;96225.31;10144149;28;97267;-62
2022/07/20 18:27:30;;;;;;;11.70;10.20;;;;;;;28.90;40.71;96228.41;10153756;28;96778;-63
2022/07/20 18:32:34;;;;;;;10.65;9.55;;;;;;;29.05;39.92;96235.69;10125741;28;97451;-63
2022/07/20 18:37:38;;;;;;;10.40;9.05;;;;;;;29.45;38.89;96254.88;10139464;28;97056;-63
2022/07/20 18:42:41;;;;;;;11.55;9.38;;;;;;;29.65;38.58;96254.91;10138520;28;96966;-62
2022/07/20 18:47:45;;;;;;;11.68;10.20;;;;;;;29.35;39.28;96258.38;10136438;28;97174;-62
2022/07/20 18:52:48;;;;;;;11.05;9.95;;;;;;;28.50;41.23;96289.00;10135658;28;97208;-62
2022/07/20 18:57:51;;;;;;;15.17;11.00;;;;;;;28.14;41.68;96280.69;10130937;28;96895;-64
2022/07/20 19:02:55;;;;;;;13.63;10.02;;;;;;;27.79;42.33;96284.72;10137630;28;97333;-62
2022/07/20 19:07:58;;;;;;;10.98;9.82;;;;;;;27.53;42.76;96296.28;10126024;28;97339;-63
2022/07/20 19:13:01;;;;;;;13.63;10.43;;;;;;;27.00;43.70;96307.53;10133405;28;97511;-62
2022/07/20 19:18:06;;;;;;;12.00;10.03;;;;;;;26.73;44.37;96318.97;10127763;28;97572;-62
2022/07/20 19:23:09;;;;;;;12.35;9.82;;;;;;;26.30;44.69;96322.41;10134972;28;96984;-62
2022/07/20 19:28:12;;;;;;;10.65;9.65;;;;;;;26.36;44.55;96335.63;10135481;28;98952;-63
2022/07/20 19:33:17;;;;;;;;;;;;;;;26.29;43.80;96347.56;10133842;28;97349;-63
2022/07/20 19:38:20;;;;;;;10.27;9.23;;;;;;;25.96;43.40;96349.16;10131303;28;98229;-62
2022/07/20 19:43:23;;;;;;;9.80;8.73;;;;;;;25.76;42.76;96346.97;10139495;28;96916;-63
2022/07/20 19:48:28;;;;;;;10.10;8.27;;;;;;;25.85;42.29;96363.44;10137311;28;97329;-63
2022/07/20 19:53:31;;;;;;;12.00;8.48;;;;;;;25.98;41.48;96385.34;10142842;28;96890;-64
2022/07/20 19:58:34;;;;;;;8.70;7.83;;;;;;;26.15;40.73;96392.56;10132139;28;97884;-62
2022/07/20 20:03:38;;;;;;;11.13;8.33;;;;;;;26.15;41.12;96412.13;10128315;28;96878;-62
2022/07/20 20:08:41;;;;;;;8.75;7.38;;;;;;;26.02;40.79;96411.63;10128100;28;97671;-63
2022/07/20 20:13:44;;;;;;;8.67;7.07;;;;;;;26.05;39.88;96411.97;10133760;28;96994;-63
2022/07/20 20:18:49;;;;;;;;;;;;;;;25.99;39.86;96424.41;10134991;28;97238;-62
2022/07/20 20:23:52;;;;;;;8.98;6.65;;;;;;;25.93;38.97;96432.59;10132674;28;96972;-62
2022/07/20 20:28:55;;;;;;;8.90;6.82;;;;;;;25.81;38.48;96441.50;10134515;28;96836;-63
2022/07/20 20:34:19;;;;;;;8.23;6.45;;;;;;;25.81;38.39;96446.06;10133799;28;96824;-62
2022/07/20 20:39:23;;;;;;;6.43;5.72;;;;;;;25.96;37.30;96451.69;10133874;28;97247;-62
2022/07/20 20:44:26;;;;;;;7.07;6.00;;;;;;;26.02;36.77;96449.91;10133797;28;97210;-62
2022/07/20 20:49:30;;;;;;;7.73;6.13;;;;;;;26.09;36.82;96449.75;10133348;28;98340;-63
2022/07/20 20:54:33;;;;;;;10.13;6.78;;;;;;;26.11;37.15;96453.81;10117821;28;97631;-62
2022/07/20 20:59:36;;;;;;;9.07;6.90;;;;;;;26.06;37.53;96456.41;10116140;28;97717;-61
2022/07/20 21:04:40;;;;;;;6.50;5.87;;;;;;;25.96;37.46;96459.72;10121165;28;97649;-62
2022/07/20 21:09:43;;;;;;;7.88;7.05;;;;;;;25.94;37.80;96452.97;10126725;28;96915;-62
2022/07/20 21:14:47;;;;;;;6.83;5.93;;;;;;;25.90;37.29;96463.34;10119919;28;96880;-61
2022/07/20 21:19:51;;;;;;;11.52;6.85;;;;;;;25.88;38.08;96461.97;10125870;28;96845;-62
2022/07/20 21:24:54;;;;;;;10.48;7.55;;;;;;;25.80;38.91;96473.84;10123206;28;97814;-62
2022/07/20 21:29:58;;;;;;;7.68;6.55;;;;;;;25.64;39.33;96471.94;10128239;28;96890;-63
2022/07/20 21:35:02;;;;;;;7.43;6.18;;;;;;;25.61;38.65;96476.69;10127880;28;99092;-62
2022/07/20 21:40:06;;;;;;;10.52;6.90;;;;;;;25.67;38.29;96471.44;10127753;28;98034;-61
2022/07/20 21:45:10;;;;;;;6.95;6.30;;;;;;;25.76;38.58;96480.75;10127171;28;96935;-61
2022/07/20 21:50:14;;;;;;;;;;;;;;;25.67;38.65;96498.22;10128975;28;96879;-61
2022/07/20 21:55:17;;;;;;;8.65;6.80;;;;;;;25.41;39.85;96493.13;10125740;28;96837;-63
2022/07/20 22:00:20;;;;;;;8.57;6.53;;;;;;;25.19;40.92;96487.59;10127304;28;96977;-61
2022/07/20 22:05:25;;;;;;;7.00;6.30;;;;;;;25.13;40.94;96483.19;10126138;28;96937;-62
2022/07/20 22:10:28;;;;;;;8.45;6.65;;;;;;;25.11;40.80;96495.94;10114363;28;96917;-63
2022/07/20 22:15:30;;;;;;;9.60;7.20;;;;;;;25.05;41.11;96486.22;10130601;28;97758;-61
2022/07/20 22:20:35;;;;;;;7.93;6.55;;;;;;;25.05;41.79;96488.88;10122711;28;97957;-61
2022/07/20 22:25:38;;;;;;;7.38;6.55;;;;;;;25.06;41.44;96496.66;10147118;28;96823;-62
2022/07/20 22:30:41;;;;;;;8.53;6.93;;;;;;;25.08;41.65;96515.16;10136780;28;97347;-62
2022/07/20 22:35:46;;;;;;;10.85;6.72;;;;;;;25.14;41.80;96519.56;10137546;28;97056;-63
2022/07/20 22:40:49;;;;;;;7.63;6.63;;;;;;;25.10;42.47;96534.44;10152489;28;97240;-63
2022/07/20 22:45:51;;;;;;;8.55;7.03;;;;;;;24.91;43.11;96531.06;10146900;28;96880;-64
2022/07/20 22:50:56;;;;;;;8.40;7.30;;;;;;;24.77;43.32;96524.28;10137030;28;97013;-64
2022/07/20 22:55:58;;;;;;;8.05;7.13;;;;;;;24.80;43.70;96524.66;10134246;28;96706;-64
2022/07/20 23:01:01;;;;;;;7.10;6.45;;;;;;;24.77;42.73;96530.44;10133673;28;97196;-64
2022/07/20 23:06:07;;;;;;;8.18;6.03;;;;;;;24.70;42.55;96524.41;10128275;28;96823;-64
2022/07/20 23:11:10;;;;;;;8.13;6.25;;;;;;;24.60;43.13;96516.13;10132380;28;97045;-64
2022/07/20 23:16:13;;;;;;;9.68;7.15;;;;;;;24.57;43.24;96508.56;10142002;28;96981;-64
2022/07/20 23:21:17;;;;;;;7.90;6.47;;;;;;;24.52;43.31;96522.59;10150355;28;96987;-64
2022/07/20 23:26:20;;;;;;;6.95;5.85;;;;;;;24.43;43.51;96532.00;10152899;28;96929;-64
2022/07/20 23:31:23;;;;;;;7.83;6.33;;;;;;;24.40;44.01;96525.28;10147055;28;97047;-64
2022/07/20 23:36:28;;;;;;;8.27;5.35;;;;;;;24.35;43.07;96517.13;10141264;28;96801;-64
2022/07/20 23:41:31;;;;;;;6.45;5.10;;;;;;;24.26;43.17;96513.13;10136891;28;97789;-65
2022/07/20 23:46:33;;;;;;;6.13;4.65;;;;;;;24.20;42.25;96514.06;10136021;28;97054;-63